Davenport, IA

2:57 PM CDT on July 07, 2015 (GMT -0500)
Southeast Davenport | | Change Station
CLOSE
Current Station
Personal Weather Station
Location: Davenport, IA
Elevation: 659 ft
Nearby Weather Stations

Elev 659 ft 41.54 °N, 90.56 °W | Updated 57 seconds ago

Mostly Cloudy
Mostly Cloudy
74.1 °F
Feels Like 77 °F
N
0.7
Wind Variable Wind from North
Gusts 1.3 mph

Today
High -- | Low -- °F
--% Chance of Precip.
Yesterday
High -- | Low -- °F
Precip. -- in
5:35 AM 8:38 PM
Waning Gibbous, 62% visible
Pressure 30.05 in
Visibility 6.0 miles
Clouds Scattered Clouds 3700 ft
Mostly Cloudy 4500 ft
Heat Index 77 °F
Dew Point 55 °F
Humidity 52%
Rainfall 0.11 in
Snow Depth Not available.
UV 5 out of 12
Pollen 1.60 out of 12
Air Quality Not available.
Flu Activity Not available.
METAR KDVN 071952Z AUTO 03008KT 6SM HZ SCT037 BKN045 21/13 A3005 RMK AO2 SLP175 T02060133

More Conditions Fewer Conditions

Pressure 30.05 in
Visibility 6.0 miles
Clouds Scattered Clouds 3700 ft
Mostly Cloudy 4500 ft
Heat Index 77 °F
Dew Point 55 °F
Humidity 52%
Rainfall 0.11 in
Snow Depth Not available.
UV 5 out of 12
Pollen 1.60 out of 12
Air Quality Not available.
Flu Activity Not available.
METAR KDVN 071952Z AUTO 03008KT 6SM HZ SCT037 BKN045 21/13 A3005 RMK AO2 SLP175 T02060133

More Conditions Fewer Conditions

10-Day Weather Forecast

×

Almanac

Astronomy

Jul. 07, 2015 Rise Set
Actual Time
Civil Twilight
Nautical Twilight
Astronomical Twilight
Moon
Length of Visible Light
Length of Day
Tomorrow will be .
, % of the Moon is Illuminated

Today's Extremes

State Highs State Lows

Community

WunderPhotos

Upload Photos

1,835,884 photos uploaded!

WunderBlogs® & News

Nearby

Air Quality

  Air Quality AQ Index Pollutant
Not available.

Snow Depth

Station Depth Elevation

Earthquake Activity

City Distance Mag. Time & Date
Minimum magnitude displayed is 2.5.

Coastal Water Temperatures

Place Temperature

Stations

Nearby Weather Stations

Station Location Temp. Windchill Dew Point Humidity Wind Precip. Elev Updated Type